Time;durP1;ratioP1;P1;durP2;ratioP2;P2;SDS_P1;SDS_P2;PMS_P1;PMS_P2;Temp;Humidity;BMP_temperature;BMP_pressure;BME280_temperature;BME280_humidity;BME280_pressure;Samples;Min_cycle;Max_cycle;Signal;HPM_P1;HPM_P2
2022/08/21 00:01:15;;;;;;;11.80;4.60;;;17.70;92.70;;;;;;5054064;28;20049;-49
2022/08/21 00:03:42;;;;;;;12.45;4.82;;;17.70;92.90;;;;;;5050924;28;20056;-47
2022/08/21 00:06:09;;;;;;;11.85;4.93;;;17.70;93.30;;;;;;5049799;28;20090;-49
2022/08/21 00:08:35;;;;;;;8.65;4.00;;;17.60;93.30;;;;;;5048723;28;20052;-47
2022/08/21 00:11:02;;;;;;;12.63;5.10;;;17.60;93.00;;;;;;5052493;28;20083;-45
2022/08/21 00:13:29;;;;;;;11.00;5.00;;;17.60;93.40;;;;;;5057409;28;20393;-42
2022/08/21 00:15:57;;;;;;;12.70;6.05;;;17.60;93.60;;;;;;5049489;28;20493;-49
2022/08/21 00:18:24;;;;;;;7.03;4.30;;;17.50;94.20;;;;;;5044792;28;20420;-49
2022/08/21 00:20:51;;;;;;;11.98;4.97;;;17.50;94.10;;;;;;5048640;28;20152;-51
2022/08/21 00:23:18;;;;;;;10.05;4.85;;;17.50;94.00;;;;;;5054230;28;20045;-47
2022/08/21 00:25:45;;;;;;;9.73;4.47;;;17.40;94.10;;;;;;5049160;28;20045;-47
2022/08/21 00:28:11;;;;;;;8.93;4.07;;;17.40;94.20;;;;;;5042930;28;20107;-51
2022/08/21 00:30:38;;;;;;;9.90;4.40;;;17.40;94.10;;;;;;5050726;28;20499;-48
2022/08/21 00:33:07;;;;;;;12.65;5.13;;;17.30;94.10;;;;;;5049857;28;20121;-47
2022/08/21 00:35:39;;;;;;;9.43;4.28;;;17.30;94.60;;;;;;5044417;28;20405;-47
2022/08/21 00:38:06;;;;;;;11.30;4.65;;;17.30;94.60;;;;;;5046629;28;20125;-48
2022/08/21 00:40:34;;;;;;;9.95;4.20;;;17.30;94.60;;;;;;5038559;28;20111;-47
2022/08/21 00:43:02;;;;;;;11.18;4.15;;;17.20;94.50;;;;;;5051147;28;20087;-51
2022/08/21 00:45:29;;;;;;;8.50;4.07;;;17.20;94.80;;;;;;5055467;28;20099;-50
2022/08/21 00:47:56;;;;;;;9.88;4.35;;;17.20;94.70;;;;;;5046286;28;20061;-48
2022/08/21 00:50:25;;;;;;;10.63;4.57;;;17.20;94.60;;;;;;5043126;28;20548;-48
2022/08/21 00:52:52;;;;;;;8.13;3.50;;;17.20;94.70;;;;;;5054362;28;20045;-47
2022/08/21 00:55:20;;;;;;;9.63;4.05;;;17.10;94.70;;;;;;5036205;28;20057;-47
2022/08/21 00:57:48;;;;;;;9.43;4.78;;;17.10;94.80;;;;;;5052969;28;20089;-48
2022/08/21 01:00:17;;;;;;;6.45;3.95;;;17.10;94.70;;;;;;5048775;28;20385;-52
2022/08/21 01:02:44;;;;;;;9.32;4.72;;;17.10;94.90;;;;;;5045322;28;20134;-50
2022/08/21 01:05:11;;;;;;;11.93;5.18;;;17.00;95.10;;;;;;5050495;28;20064;-47
2022/08/21 01:07:39;;;;;;;13.65;4.78;;;16.90;95.10;;;;;;5045859;28;20053;-50
2022/08/21 01:10:06;;;;;;;7.00;3.65;;;17.00;95.30;;;;;;5048920;28;20060;-48
2022/08/21 01:12:33;;;;;;;9.38;4.45;;;16.90;95.20;;;;;;5045253;28;20069;-48
2022/08/21 01:15:01;;;;;;;9.55;4.57;;;16.90;95.20;;;;;;5042829;28;20142;-47
2022/08/21 01:17:28;;;;;;;6.63;4.60;;;16.90;95.30;;;;;;5051089;28;20128;-49
2022/08/21 01:19:57;;;;;;;12.20;5.68;;;16.80;95.30;;;;;;5052611;28;20771;-48
2022/08/21 01:22:26;;;;;;;7.97;4.13;;;16.90;95.40;;;;;;5049782;28;20045;-49
2022/08/21 01:24:52;;;;;;;6.65;3.55;;;16.80;95.30;;;;;;5053190;28;20065;-48
2022/08/21 01:27:19;;;;;;;9.93;5.03;;;16.80;95.10;;;;;;5051680;28;20099;-47
2022/08/21 01:29:51;;;;;;;12.18;4.45;;;16.80;95.30;;;;;;5053130;28;20083;-50
2022/08/21 01:32:18;;;;;;;8.68;4.32;;;16.70;95.60;;;;;;5044819;28;20121;-53
2022/08/21 01:34:47;;;;;;;8.88;4.72;;;16.70;95.70;;;;;;5044081;28;20103;-49
2022/08/21 01:37:13;;;;;;;7.13;4.07;;;16.70;95.80;;;;;;5053678;28;20045;-51
2022/08/21 01:39:42;;;;;;;9.15;4.13;;;16.60;95.80;;;;;;5038581;28;20081;-51
2022/08/21 01:42:09;;;;;;;8.13;4.18;;;16.60;95.80;;;;;;5047570;28;20464;-47
2022/08/21 01:44:36;;;;;;;10.38;4.85;;;16.60;95.70;;;;;;5050517;28;20137;-49
2022/08/21 01:47:05;;;;;;;10.40;4.32;;;16.50;95.70;;;;;;5048597;28;20551;-49
2022/08/21 01:49:32;;;;;;;7.85;4.25;;;16.50;95.70;;;;;;5038173;28;20128;-48
2022/08/21 01:51:59;;;;;;;7.32;4.13;;;16.40;95.70;;;;;;5039925;28;20088;-45
2022/08/21 01:54:26;;;;;;;7.28;4.35;;;16.50;95.80;;;;;;5038601;28;20055;-48
2022/08/21 01:56:54;;;;;;;5.43;3.42;;;16.40;96.00;;;;;;5058058;28;20463;-49
2022/08/21 01:59:21;;;;;;;8.80;4.95;;;16.40;95.80;;;;;;5051013;28;20045;-44
2022/08/21 02:01:48;;;;;;;10.60;4.82;;;16.40;96.00;;;;;;5053049;28;20120;-50
2022/08/21 02:04:15;;;;;;;9.43;5.25;;;16.40;96.10;;;;;;5050802;28;20091;-49
2022/08/21 02:06:41;;;;;;;9.30;4.60;;;16.30;96.10;;;;;;5047156;28;20824;-49
2022/08/21 02:09:09;;;;;;;11.40;5.10;;;16.30;96.20;;;;;;5052872;28;20187;-46
2022/08/21 02:11:39;;;;;;;10.98;5.00;;;16.30;96.40;;;;;;5062568;28;20076;-44
2022/08/21 02:14:07;;;;;;;10.50;6.03;;;16.30;96.40;;;;;;5072991;28;20049;-49
2022/08/21 02:16:34;;;;;;;9.68;5.47;;;16.20;96.70;;;;;;5073073;28;20095;-48
2022/08/21 02:19:01;;;;;;;9.30;5.28;;;16.20;96.80;;;;;;5065482;28;20060;-47
2022/08/21 02:21:27;;;;;;;9.88;4.90;;;16.20;96.80;;;;;;5051567;28;20053;-47
2022/08/21 02:23:54;;;;;;;7.78;4.55;;;16.10;96.70;;;;;;5051525;28;20103;-52
2022/08/21 02:26:21;;;;;;;10.20;5.43;;;16.20;96.50;;;;;;5051908;28;20080;-47
2022/08/21 02:28:48;;;;;;;9.90;4.65;;;16.10;96.60;;;;;;5052584;28;20048;-47
2022/08/21 02:31:16;;;;;;;9.35;5.68;;;16.10;96.40;;;;;;5052603;28;20053;-48
2022/08/21 02:33:43;;;;;;;9.93;4.93;;;16.10;96.60;;;;;;5052924;28;20140;-47
2022/08/21 02:36:09;;;;;;;8.00;5.50;;;16.10;96.60;;;;;;5052721;28;20139;-44
2022/08/21 02:38:37;;;;;;;10.88;5.32;;;16.00;96.80;;;;;;5051119;28;20065;-48
2022/08/21 02:41:04;;;;;;;11.02;4.80;;;16.00;96.90;;;;;;5052635;28;20111;-46
2022/08/21 02:43:31;;;;;;;7.30;5.20;;;16.00;97.00;;;;;;5052298;28;20118;-47
2022/08/21 02:45:58;;;;;;;10.40;5.68;;;16.00;96.70;;;;;;5043082;28;20548;-48
2022/08/21 02:48:28;;;;;;;10.75;6.00;;;16.00;97.20;;;;;;5051180;28;20075;-49
2022/08/21 02:50:56;;;;;;;12.15;5.65;;;16.00;97.40;;;;;;5060885;28;20422;-51
2022/08/21 02:53:23;;;;;;;13.82;6.70;;;16.00;97.30;;;;;;5051799;28;20133;-48
2022/08/21 02:55:50;;;;;;;8.88;5.75;;;15.90;97.50;;;;;;5050807;28;20056;-48
2022/08/21 02:58:19;;;;;;;8.07;5.68;;;15.90;97.30;;;;;;5051234;28;20045;-48
2022/08/21 03:00:46;;;;;;;10.48;6.03;;;15.90;97.30;;;;;;5052423;28;20099;-45
2022/08/21 03:03:14;;;;;;;8.55;5.63;;;15.90;97.40;;;;;;5052466;28;20134;-47
2022/08/21 03:05:42;;;;;;;7.88;4.78;;;15.80;97.50;;;;;;5051648;28;20140;-48
2022/08/21 03:08:10;;;;;;;10.18;5.45;;;15.80;97.20;;;;;;5051176;28;20053;-50
2022/08/21 03:10:37;;;;;;;11.85;5.60;;;15.80;97.30;;;;;;5054468;28;20049;-44
2022/08/21 03:13:04;;;;;;;11.32;6.20;;;15.80;97.10;;;;;;5065072;28;20132;-51
2022/08/21 03:15:30;;;;;;;11.15;6.38;;;15.80;97.30;;;;;;5051449;28;20052;-52
2022/08/21 03:17:57;;;;;;;10.63;5.30;;;15.80;97.50;;;;;;5052695;28;20076;-49
2022/08/21 03:20:26;;;;;;;11.48;6.78;;;15.80;97.50;;;;;;5052166;28;20077;-48
2022/08/21 03:22:54;;;;;;;7.78;5.30;;;15.70;97.90;;;;;;5040248;28;20068;-50
2022/08/21 03:25:21;;;;;;;9.88;5.55;;;15.70;97.70;;;;;;5049543;28;20103;-50
2022/08/21 03:27:48;;;;;;;9.98;5.70;;;15.70;97.60;;;;;;5065839;28;20488;-49
2022/08/21 03:30:15;;;;;;;9.20;5.85;;;15.70;97.60;;;;;;5056790;28;20485;-48
2022/08/21 03:32:42;;;;;;;9.20;5.57;;;15.70;97.70;;;;;;5052420;28;20453;-45
2022/08/21 03:35:10;;;;;;;13.85;6.20;;;15.70;97.60;;;;;;5058978;28;20049;-47
2022/08/21 03:37:37;;;;;;;9.38;6.00;;;15.70;97.60;;;;;;5057738;28;20136;-47
2022/08/21 03:40:06;;;;;;;9.82;5.50;;;15.60;97.60;;;;;;5065133;28;20117;-49
2022/08/21 03:42:32;;;;;;;9.20;6.07;;;15.60;97.70;;;;;;5070857;28;20048;-49
2022/08/21 03:44:59;;;;;;;12.02;6.82;;;15.70;97.90;;;;;;5058519;28;20084;-45
2022/08/21 03:47:26;;;;;;;16.25;8.65;;;15.60;98.20;;;;;;5049128;28;20549;-44
2022/08/21 03:49:54;;;;;;;12.43;6.45;;;15.50;98.90;;;;;;5052761;28;20127;-48
2022/08/21 03:52:20;;;;;;;13.95;7.78;;;15.50;99.10;;;;;;5070970;28;20124;-46
2022/08/21 03:54:47;;;;;;;13.05;7.30;;;15.50;99.00;;;;;;5065156;28;20412;-48
2022/08/21 03:57:15;;;;;;;11.10;6.68;;;15.50;99.10;;;;;;5062902;28;20094;-49
2022/08/21 03:59:43;;;;;;;10.93;6.88;;;15.50;99.00;;;;;;5071956;28;20094;-51
2022/08/21 04:02:09;;;;;;;13.27;6.22;;;15.50;99.00;;;;;;5055341;28;20061;-45
2022/08/21 04:04:36;;;;;;;12.32;6.47;;;15.40;98.80;;;;;;5062555;28;20080;-51
2022/08/21 04:07:03;;;;;;;11.30;6.65;;;15.40;98.80;;;;;;5059434;28;20049;-44
2022/08/21 04:09:30;;;;;;;14.05;8.57;;;15.40;98.80;;;;;;5054065;28;20136;-48
2022/08/21 04:11:57;;;;;;;9.68;5.55;;;15.40;99.80;;;;;;5052986;28;20048;-41
2022/08/21 04:14:25;;;;;;;15.27;7.75;;;15.40;99.50;;;;;;5073541;28;20064;-49
2022/08/21 04:16:52;;;;;;;15.40;7.65;;;15.40;99.70;;;;;;5073653;28;20180;-49
2022/08/21 04:19:19;;;;;;;14.02;7.18;;;15.40;99.90;;;;;;5063024;28;20052;-49
2022/08/21 04:21:46;;;;;;;10.35;6.03;;;15.40;99.90;;;;;;5056039;28;20049;-44
2022/08/21 04:24:12;;;;;;;11.93;6.95;;;15.40;99.70;;;;;;5064582;28;20040;-47
2022/08/21 04:26:40;;;;;;;13.57;7.82;;;15.30;99.90;;;;;;5061167;28;20119;-46
2022/08/21 04:29:07;;;;;;;13.45;8.35;;;15.30;99.90;;;;;;5057065;28;20124;-48
2022/08/21 04:31:36;;;;;;;15.02;7.55;;;15.30;99.90;;;;;;5054841;28;20049;-49
2022/08/21 04:34:03;;;;;;;13.30;6.78;;;15.30;99.90;;;;;;5055095;28;20393;-48
2022/08/21 04:36:30;;;;;;;11.57;6.55;;;15.30;99.90;;;;;;5055798;28;20137;-49
2022/08/21 04:38:57;;;;;;;14.10;6.45;;;15.30;99.90;;;;;;5058359;28;20048;-47
2022/08/21 04:41:24;;;;;;;14.93;8.75;;;15.30;99.90;;;;;;5073243;28;20075;-43
2022/08/21 04:43:50;;;;;;;16.83;8.27;;;15.30;99.90;;;;;;5056532;28;20128;-47
2022/08/21 04:46:18;;;;;;;10.40;6.80;;;15.30;99.90;;;;;;5053983;28;20067;-49
2022/08/21 04:48:46;;;;;;;16.05;7.90;;;15.30;99.90;;;;;;5065336;28;20048;-51
2022/08/21 04:51:16;;;;;;;9.75;6.78;;;15.30;99.90;;;;;;5052347;28;20056;-48
2022/08/21 04:53:44;;;;;;;15.68;7.65;;;15.20;99.90;;;;;;5058244;28;20460;-48
2022/08/21 04:56:15;;;;;;;15.07;8.15;;;15.30;99.90;;;;;;5066505;28;20099;-51
2022/08/21 04:58:42;;;;;;;;;;;15.30;99.90;;;;;;5058983;28;20140;-48
2022/08/21 05:01:12;;;;;;;11.77;7.82;;;15.20;99.90;;;;;;5059078;28;19924;-48
2022/08/21 05:03:39;;;;;;;15.10;7.07;;;15.20;99.90;;;;;;5057512;28;20048;-48
2022/08/21 05:06:08;;;;;;;9.68;5.88;;;15.20;99.90;;;;;;5061432;28;20385;-44
2022/08/21 05:08:34;;;;;;;13.98;7.72;;;15.30;99.90;;;;;;5058569;28;20408;-50
2022/08/21 05:11:01;;;;;;;21.02;9.75;;;15.30;99.90;;;;;;5061900;28;20056;-46
2022/08/21 05:13:28;;;;;;;14.52;7.38;;;15.30;99.90;;;;;;5064578;28;20080;-50
2022/08/21 05:15:55;;;;;;;12.70;7.28;;;15.20;99.90;;;;;;5065569;28;20053;-52
2022/08/21 05:18:22;;;;;;;11.60;7.20;;;15.20;99.90;;;;;;5056106;28;20044;-48
2022/08/21 05:20:49;;;;;;;11.30;7.82;;;15.20;99.90;;;;;;5054578;28;20136;-48
2022/08/21 05:23:20;;;;;;;13.60;8.60;;;15.30;99.90;;;;;;5065129;28;20132;-46
2022/08/21 05:25:46;;;;;;;17.45;8.80;;;15.30;99.90;;;;;;5052625;28;20044;-46
2022/08/21 05:28:13;;;;;;;16.63;8.00;;;15.30;99.90;;;;;;5067146;28;20088;-48
2022/08/21 05:30:40;;;;;;;20.05;8.57;;;15.30;99.90;;;;;;5056204;28;20056;-52
2022/08/21 05:33:07;;;;;;;14.60;7.32;;;15.40;99.90;;;;;;5071547;28;20048;-46
2022/08/21 05:35:34;;;;;;;14.40;7.15;;;15.40;99.90;;;;;;5063536;28;20059;-47
2022/08/21 05:38:01;;;;;;;13.43;8.13;;;15.40;99.90;;;;;;5069568;28;20438;-48
2022/08/21 05:40:29;;;;;;;17.50;8.98;;;15.40;99.90;;;;;;5054429;28;20135;-45
2022/08/21 05:42:56;;;;;;;12.00;7.30;;;15.40;99.90;;;;;;5066605;28;20048;-43
2022/08/21 05:45:23;;;;;;;15.27;7.50;;;15.50;99.90;;;;;;5054019;28;20045;-49
2022/08/21 05:47:50;;;;;;;14.57;7.38;;;15.50;99.90;;;;;;5052432;28;20126;-49
2022/08/21 05:50:16;;;;;;;17.90;8.55;;;15.60;99.90;;;;;;5051438;28;20129;-48
2022/08/21 05:52:43;;;;;;;16.05;7.53;;;15.60;99.90;;;;;;5066271;28;20132;-44
2022/08/21 05:55:10;;;;;;;15.82;7.43;;;15.70;99.90;;;;;;5057935;28;20132;-50
2022/08/21 05:57:40;;;;;;;16.20;8.00;;;15.70;99.90;;;;;;5052388;28;20056;-50
2022/08/21 06:00:10;;;;;;;15.57;8.13;;;15.80;99.90;;;;;;5053248;28;20085;-48
2022/08/21 06:02:36;;;;;;;15.02;7.80;;;15.90;99.90;;;;;;5056512;28;20055;-51
2022/08/21 06:05:04;;;;;;;12.57;7.40;;;16.00;99.90;;;;;;5054320;28;20045;-49
2022/08/21 06:07:31;;;;;;;20.65;7.57;;;16.10;99.90;;;;;;5064911;28;20502;-47
2022/08/21 06:09:58;;;;;;;11.98;6.78;;;16.20;99.90;;;;;;5053867;28;20080;-50
2022/08/21 06:12:25;;;;;;;20.25;7.47;;;16.30;99.90;;;;;;5053386;28;20140;-53
2022/08/21 06:14:53;;;;;;;14.35;7.18;;;16.50;99.90;;;;;;5062599;28;20090;-44
2022/08/21 06:17:20;;;;;;;13.63;6.68;;;16.50;99.90;;;;;;5059585;28;20044;-50
2022/08/21 06:19:51;;;;;;;19.65;7.18;;;16.60;99.90;;;;;;5057852;28;20052;-45
2022/08/21 06:22:18;;;;;;;11.93;6.53;;;16.80;99.90;;;;;;5052426;28;20115;-49
2022/08/21 06:24:45;;;;;;;9.40;5.97;;;16.90;99.90;;;;;;5062756;28;20431;-48
2022/08/21 06:27:12;;;;;;;16.48;6.93;;;17.00;99.90;;;;;;5070905;28;20052;-50
2022/08/21 06:29:38;;;;;;;18.70;6.60;;;17.10;99.90;;;;;;5072870;28;20090;-46
2022/08/21 06:32:08;;;;;;;12.63;6.07;;;17.20;99.90;;;;;;5055698;28;20048;-52
2022/08/21 06:34:37;;;;;;;12.52;5.80;;;17.40;99.90;;;;;;5051617;28;20055;-50
2022/08/21 06:37:04;;;;;;;21.17;6.32;;;17.60;99.90;;;;;;5052812;28;20140;-42
2022/08/21 06:39:31;;;;;;;17.40;5.50;;;17.60;99.90;;;;;;5057274;28;20080;-48
2022/08/21 06:41:58;;;;;;;17.77;6.13;;;17.70;99.90;;;;;;5049781;28;20057;-47
2022/08/21 06:44:24;;;;;;;18.85;5.68;;;17.80;99.90;;;;;;5050452;28;20124;-44
2022/08/21 06:46:51;;;;;;;15.70;4.80;;;17.90;99.90;;;;;;5054686;28;20084;-51
2022/08/21 06:49:19;;;;;;;17.80;5.07;;;18.00;99.90;;;;;;5051892;28;20073;-46
2022/08/21 06:51:46;;;;;;;12.95;4.65;;;18.20;99.90;;;;;;5051182;28;20128;-52
2022/08/21 06:54:13;;;;;;;17.35;5.18;;;18.30;99.90;;;;;;5060218;28;20433;-48
2022/08/21 06:56:39;;;;;;;17.05;4.85;;;18.40;99.90;;;;;;5050580;28;20057;-45
2022/08/21 06:59:06;;;;;;;14.50;4.25;;;18.60;99.90;;;;;;5059142;28;20079;-45
2022/08/21 07:01:33;;;;;;;9.32;4.15;;;18.70;99.90;;;;;;5056727;28;20067;-51
2022/08/21 07:04:00;;;;;;;12.85;4.30;;;18.90;99.90;;;;;;5051318;28;20488;-50
2022/08/21 07:06:28;;;;;;;18.02;4.05;;;18.90;99.90;;;;;;5047991;28;20128;-48
2022/08/21 07:08:55;;;;;;;13.10;4.22;;;19.10;99.90;;;;;;5049809;28;20044;-48
2022/08/21 07:11:23;;;;;;;14.68;4.25;;;19.20;99.90;;;;;;5055047;28;20084;-50
2022/08/21 07:13:52;;;;;;;11.35;3.50;;;19.30;99.60;;;;;;5055790;28;20111;-52
2022/08/21 07:16:18;;;;;;;12.98;4.32;;;19.40;99.30;;;;;;5046844;28;20049;-48
2022/08/21 07:18:45;;;;;;;12.05;4.15;;;19.50;99.00;;;;;;5048459;28;20072;-51
2022/08/21 07:21:12;;;;;;;16.38;4.10;;;19.60;98.80;;;;;;5051060;28;20132;-49
2022/08/21 07:23:42;;;;;;;12.90;3.90;;;19.70;98.60;;;;;;5051670;28;20080;-51
2022/08/21 07:26:09;;;;;;;12.13;4.05;;;19.80;98.40;;;;;;5052774;28;20048;-51
2022/08/21 07:28:36;;;;;;;14.00;4.38;;;19.90;98.40;;;;;;5062536;28;20045;-49
2022/08/21 07:31:02;;;;;;;17.75;4.25;;;20.00;98.20;;;;;;5049109;28;20053;-46
2022/08/21 07:33:30;;;;;;;11.50;3.75;;;20.20;98.00;;;;;;5050849;28;20110;-43
2022/08/21 07:35:57;;;;;;;14.95;3.60;;;20.40;97.90;;;;;;5053990;28;20477;-46
2022/08/21 07:38:24;;;;;;;15.10;4.05;;;20.50;97.60;;;;;;5055355;28;20146;-43
2022/08/21 07:40:52;;;;;;;16.60;4.55;;;20.60;97.40;;;;;;5053473;28;20052;-50
2022/08/21 07:43:19;;;;;;;15.80;4.13;;;20.70;96.90;;;;;;5066273;28;20498;-44
2022/08/21 07:45:46;;;;;;;14.90;4.03;;;20.90;96.60;;;;;;5059190;28;20355;-50
2022/08/21 07:48:13;;;;;;;10.45;3.53;;;21.00;96.30;;;;;;5071087;28;20080;-42
2022/08/21 07:51:06;;;;;;;13.15;3.90;;;21.10;96.20;;;;;;5049128;28;20049;-51
2022/08/21 07:53:33;;;;;;;15.00;3.90;;;21.30;95.30;;;;;;5066567;28;20095;-52
2022/08/21 07:56:01;;;;;;;17.13;4.03;;;21.30;95.30;;;;;;5054862;28;20053;-51
2022/08/21 07:58:28;;;;;;;15.57;3.67;;;21.40;95.00;;;;;;5068478;28;20192;-51
2022/08/21 08:00:55;;;;;;;13.82;3.70;;;21.50;95.00;;;;;;5055264;28;20081;-46
2022/08/21 08:03:22;;;;;;;12.57;3.17;;;21.60;94.70;;;;;;5056254;28;20053;-52
2022/08/21 08:05:48;;;;;;;12.23;3.92;;;21.80;94.60;;;;;;5062752;28;20048;-44
2022/08/21 08:08:15;;;;;;;12.73;3.45;;;21.90;94.40;;;;;;5046833;28;20686;-49
2022/08/21 08:10:42;;;;;;;13.27;4.03;;;22.10;94.20;;;;;;5054263;28;20076;-48
2022/08/21 08:13:10;;;;;;;12.50;3.30;;;22.20;93.60;;;;;;5053114;28;20075;-48
2022/08/21 08:15:37;;;;;;;11.63;3.08;;;22.40;93.20;;;;;;5050458;28;20056;-51
2022/08/21 08:18:04;;;;;;;15.57;4.07;;;22.50;92.80;;;;;;5069672;28;20048;-41
2022/08/21 08:20:31;;;;;;;12.13;3.42;;;22.50;92.40;;;;;;5054437;28;20563;-49
2022/08/21 08:22:57;;;;;;;12.05;3.40;;;22.60;92.30;;;;;;5058691;28;20037;-50
2022/08/21 08:25:25;;;;;;;13.98;2.97;;;22.70;92.20;;;;;;5070540;28;20148;-53
2022/08/21 08:27:51;;;;;;;18.52;3.85;;;22.80;91.80;;;;;;5069469;28;20059;-55
2022/08/21 08:30:20;;;;;;;12.18;3.47;;;22.90;91.40;;;;;;5067343;28;20083;-53
2022/08/21 08:32:49;;;;;;;12.18;3.65;;;23.00;91.20;;;;;;5051699;28;20055;-50
2022/08/21 08:35:16;;;;;;;10.02;3.20;;;23.10;91.20;;;;;;5061987;28;20068;-50
2022/08/21 08:37:45;;;;;;;11.35;3.20;;;23.20;90.90;;;;;;5066874;28;20088;-43
2022/08/21 08:40:13;;;;;;;10.85;3.30;;;23.30;90.50;;;;;;5053010;28;20552;-47
2022/08/21 08:42:40;;;;;;;10.98;2.80;;;23.40;90.50;;;;;;5059671;28;20408;-50
2022/08/21 08:45:09;;;;;;;12.85;2.65;;;23.50;89.60;;;;;;5066429;28;20045;-49
2022/08/21 08:47:38;;;;;;;8.65;2.33;;;23.50;88.70;;;;;;5051156;28;20055;-51
2022/08/21 08:50:07;;;;;;;8.73;2.20;;;23.60;87.30;;;;;;5053097;28;20076;-44
2022/08/21 08:52:34;;;;;;;7.28;2.17;;;23.70;87.90;;;;;;5053241;28;20124;-54
2022/08/21 08:55:04;;;;;;;8.27;1.90;;;23.80;85.80;;;;;;5052818;28;20138;-51
2022/08/21 08:57:31;;;;;;;7.85;1.88;;;23.90;85.00;;;;;;5053636;28;20126;-47
2022/08/21 09:00:00;;;;;;;10.95;2.00;;;23.90;84.80;;;;;;5054379;28;20056;-49
2022/08/21 09:02:28;;;;;;;7.63;1.88;;;24.10;84.30;;;;;;5056322;28;20080;-54
2022/08/21 09:04:56;;;;;;;8.38;1.73;;;24.10;84.40;;;;;;5055630;28;20480;-50
2022/08/21 09:07:39;;;;;;;10.15;1.90;;;24.20;84.70;;;;;;5069387;28;20393;-49
2022/08/21 09:10:12;;;;;;;9.05;2.03;;;24.40;83.80;;;;;;5068698;28;20071;-53
2022/08/21 09:12:44;;;;;;;7.63;1.60;;;24.50;83.80;;;;;;5066829;28;20053;-52
2022/08/21 09:15:18;;;;;;;8.52;1.90;;;24.60;83.50;;;;;;5052177;28;20102;-47
2022/08/21 09:17:55;;;;;;;13.57;1.90;;;24.80;82.90;;;;;;5053927;28;20048;-46
2022/08/21 09:20:35;;;;;;;9.52;2.13;;;24.90;83.20;;;;;;5053481;28;20072;-44
2022/08/21 09:23:07;;;;;;;9.52;2.22;;;25.10;83.20;;;;;;5050486;28;20088;-51
2022/08/21 09:25:35;;;;;;;6.82;2.00;;;25.30;83.50;;;;;;5057855;28;20094;-53
2022/08/21 09:28:02;;;;;;;10.55;2.03;;;25.40;82.90;;;;;;5041217;28;20048;-51
2022/08/21 09:30:31;;;;;;;10.63;2.47;;;25.50;82.90;;;;;;5053267;28;20088;-50
2022/08/21 09:32:59;;;;;;;12.93;2.97;;;25.60;81.90;;;;;;5053534;28;20088;-52
2022/08/21 09:35:27;;;;;;;10.65;2.22;;;25.60;81.70;;;;;;5052232;28;20080;-47
2022/08/21 09:37:56;;;;;;;9.43;2.00;;;25.60;81.70;;;;;;5052187;28;20385;-53
2022/08/21 09:40:32;;;;;;;8.40;1.92;;;25.80;81.40;;;;;;5051593;28;20217;-52
2022/08/21 09:43:04;;;;;;;8.88;2.22;;;25.80;81.30;;;;;;5053298;28;20060;-49
2022/08/21 09:45:31;;;;;;;12.38;2.60;;;25.90;81.40;;;;;;5050687;28;20079;-52
2022/08/21 09:48:09;;;;;;;12.57;2.42;;;26.00;80.60;;;;;;5073131;28;20454;-52
2022/08/21 09:50:38;;;;;;;9.32;2.60;;;26.10;80.50;;;;;;5064101;28;20090;-53
2022/08/21 09:53:05;;;;;;;10.32;2.20;;;26.00;80.60;;;;;;5057388;28;20445;-51
2022/08/21 09:58:18;;;;;;;13.10;2.40;;;25.90;80.50;;;;;;5050285;28;20085;-52
2022/08/21 10:00:44;;;;;;;10.93;2.30;;;25.90;80.70;;;;;;5050152;28;20084;-51
2022/08/21 10:03:14;;;;;;;10.43;2.70;;;26.00;80.90;;;;;;5048033;28;20052;-53
2022/08/21 10:05:51;;;;;;;14.35;2.80;;;26.00;79.50;;;;;;5052435;28;20045;-53
2022/08/21 10:08:19;;;;;;;11.00;2.22;;;26.00;80.10;;;;;;5040822;28;20041;-51
2022/08/21 10:10:46;;;;;;;9.85;2.53;;;26.10;80.90;;;;;;5053039;28;20049;-54
2022/08/21 10:13:14;;;;;;;11.32;2.30;;;26.30;80.20;;;;;;5055537;28;20110;-51
2022/08/21 10:15:58;;;;;;;11.63;2.15;;;26.50;78.80;;;;;;5045196;28;20571;-49
2022/08/21 10:18:27;;;;;;;10.40;2.10;;;26.60;78.90;;;;;;5047871;28;20053;-51
2022/08/21 10:20:58;;;;;;;9.07;2.15;;;26.70;77.90;;;;;;5041839;28;20046;-48
2022/08/21 10:23:35;;;;;;;13.23;2.70;;;26.70;77.10;;;;;;5043626;28;20081;-50
2022/08/21 10:26:06;;;;;;;8.90;2.05;;;26.70;77.40;;;;;;5048994;28;20077;-52
2022/08/21 10:28:36;;;;;;;9.15;2.10;;;26.70;77.10;;;;;;5047443;28;20072;-48
2022/08/21 10:31:07;;;;;;;10.07;2.45;;;26.60;77.20;;;;;;5047124;28;20118;-44
2022/08/21 10:33:38;;;;;;;9.52;2.63;;;26.60;77.80;;;;;;5055374;28;20041;-41
2022/08/21 10:36:08;;;;;;;;;;;26.50;77.50;;;;;;5058120;28;20053;-53
2022/08/21 10:38:58;;;;;;;9.00;2.15;;;26.40;75.50;;;;;;5043538;28;19999;-45
2022/08/21 10:41:29;;;;;;;8.40;1.88;;;26.40;77.40;;;;;;5044425;28;20489;-45
2022/08/21 10:44:00;;;;;;;6.95;1.92;;;26.40;77.10;;;;;;5046987;28;20076;-52
2022/08/21 10:46:34;;;;;;;;;;;26.40;77.40;;;;;;5047804;28;20041;-39
2022/08/21 10:49:08;;;;;;;6.75;1.90;;;26.60;77.90;;;;;;5048752;28;19924;-47
2022/08/21 10:51:39;;;;;;;10.50;2.40;;;26.80;77.30;;;;;;5052399;28;20408;-52
2022/08/21 10:54:08;;;;;;;;;;;27.10;75.90;;;;;;5046415;28;20123;-52
2022/08/21 10:56:37;;;;;;;11.98;2.20;;;27.30;75.60;;;;;;5031565;28;20029;-52
2022/08/21 10:59:10;;;;;;;7.40;2.05;;;27.40;74.90;;;;;;5032854;28;20096;-52
2022/08/21 11:01:44;;;;;;;13.68;2.50;;;27.60;73.90;;;;;;5033886;28;20124;-49
2022/08/21 11:04:13;;;;;;;14.30;2.28;;;27.70;74.10;;;;;;5020825;28;20075;-52
2022/08/21 11:06:44;;;;;;;9.10;1.92;;;27.90;74.20;;;;;;5032151;28;20037;-52
2022/08/21 11:09:12;;;;;;;;;;;28.10;73.40;;;;;;5035293;28;20084;-52
2022/08/21 11:11:40;;;;;;;8.20;2.30;;;28.00;72.80;;;;;;5042534;28;20075;-53
2022/08/21 11:14:18;;;;;;;6.60;1.90;;;27.80;72.10;;;;;;5032380;28;20057;-52
2022/08/21 11:16:46;;;;;;;9.68;2.17;;;27.60;71.80;;;;;;5034927;28;20115;-51
2022/08/21 11:19:16;;;;;;;8.35;2.25;;;27.60;72.20;;;;;;5037127;28;20081;-50
2022/08/21 11:21:49;;;;;;;10.18;2.45;;;27.70;71.80;;;;;;5035556;28;20115;-49
2022/08/21 11:24:22;;;;;;;8.45;2.22;;;27.90;72.30;;;;;;5035449;28;20100;-53
2022/08/21 11:26:52;;;;;;;9.77;2.28;;;27.90;72.10;;;;;;5019261;28;20045;-52
2022/08/21 11:29:21;;;;;;;6.35;1.98;;;27.80;71.80;;;;;;5033944;28;20049;-51
2022/08/21 11:32:04;;;;;;;7.53;2.22;;;27.90;72.00;;;;;;5037263;28;20044;-51
2022/08/21 11:34:48;;;;;;;10.52;2.38;;;28.00;72.30;;;;;;5023712;28;20045;-48
2022/08/21 11:37:20;;;;;;;7.13;1.98;;;28.30;70.70;;;;;;5015487;28;20073;-49
2022/08/21 11:39:50;;;;;;;9.05;2.20;;;28.40;70.20;;;;;;5027399;28;20128;-47
2022/08/21 11:42:21;;;;;;;7.20;1.95;;;28.60;68.40;;;;;;5030204;28;20053;-51
2022/08/21 11:44:50;;;;;;;8.07;2.13;;;28.70;69.60;;;;;;5033433;28;20563;-52
2022/08/21 11:47:20;;;;;;;7.53;1.80;;;28.70;68.90;;;;;;5049235;28;20041;-53
2022/08/21 11:50:03;;;;;;;10.90;2.47;;;28.70;68.20;;;;;;5042494;28;20049;-51
2022/08/21 11:52:33;;;;;;;8.77;2.30;;;28.80;68.40;;;;;;5039073;28;20612;-48
2022/08/21 11:55:02;;;;;;;8.50;2.33;;;28.70;68.40;;;;;;5054051;28;20496;-53
2022/08/21 11:57:30;;;;;;;13.48;2.28;;;28.70;69.20;;;;;;5061589;28;20048;-54
2022/08/21 11:59:59;;;;;;;16.48;2.40;;;28.80;68.10;;;;;;5036023;28;20131;-55
2022/08/21 12:02:30;;;;;;;9.02;2.15;;;28.80;67.00;;;;;;5050573;28;20091;-52
2022/08/21 12:04:59;;;;;;;11.80;2.20;;;28.70;66.50;;;;;;5048072;28;20057;-51
2022/08/21 12:07:34;;;;;;;10.93;2.53;;;28.70;67.10;;;;;;5040100;28;20386;-54
2022/08/21 12:10:01;;;;;;;7.18;2.03;;;28.70;65.80;;;;;;5041220;28;20052;-55
2022/08/21 12:12:29;;;;;;;9.80;2.53;;;28.50;68.10;;;;;;5053603;28;20080;-51
2022/08/21 12:15:14;;;;;;;9.95;2.28;;;28.40;67.20;;;;;;5058381;28;20048;-54
2022/08/21 12:17:41;;;;;;;8.63;2.30;;;28.30;67.00;;;;;;5058447;28;20048;-50
2022/08/21 12:20:17;;;;;;;8.07;1.90;;;28.30;67.80;;;;;;5059766;28;20049;-53
2022/08/21 12:22:50;;;;;;;11.18;2.45;;;28.30;68.30;;;;;;5058941;28;20076;-51
2022/08/21 12:25:18;;;;;;;11.32;2.22;;;28.30;67.80;;;;;;5056443;28;20593;-45
2022/08/21 12:27:47;;;;;;;8.68;1.90;;;28.40;67.50;;;;;;5033403;28;20053;-48
2022/08/21 12:30:22;;;;;;;7.10;1.95;;;28.40;67.30;;;;;;5052169;28;20096;-52
2022/08/21 12:32:59;;;;;;;9.40;2.30;;;28.40;68.40;;;;;;5033169;28;20045;-53
2022/08/21 12:35:28;;;;;;;10.73;2.80;;;28.30;68.50;;;;;;5072907;28;20056;-52
2022/08/21 12:38:01;;;;;;;8.35;2.50;;;28.30;68.30;;;;;;5044966;28;20037;-47
2022/08/21 12:40:31;;;;;;;10.10;2.45;;;28.30;67.60;;;;;;5066789;28;20052;-54
2022/08/21 12:43:01;;;;;;;7.70;2.43;;;28.30;68.50;;;;;;5043905;28;20046;-53
2022/08/21 12:45:30;;;;;;;13.60;2.45;;;28.30;68.60;;;;;;5058309;28;20507;-53
2022/08/21 12:47:58;;;;;;;8.43;2.38;;;28.40;68.20;;;;;;5054183;28;20052;-53
2022/08/21 12:50:27;;;;;;;8.88;2.22;;;28.50;68.80;;;;;;5042127;28;20065;-49
2022/08/21 12:52:59;;;;;;;8.27;2.70;;;28.60;67.80;;;;;;5050699;28;20054;-49